Date,TemperatureHighF,TemperatureAvgF,TemperatureLowF,DewpointHighF,DewpointAvgF,DewpointLowF,HumidityHigh,HumidityAvg,HumidityLow,PressureMaxIn,PressureMinIn,WindSpeedMaxMPH,WindSpeedAvgMPH,GustSpeedMaxMPH,PrecipitationSumIn
2013-8-3,73.1,73.1,73.0,72.2,72.2,72.1,97,97,97,29.96,29.95,0,0,0,0.00
2013-8-4,83.1,77.2,72.5,73.1,69.2,66.1,99,77,61,30.01,29.95,0,0,0,0.00
2013-8-5,81.3,76.2,66.0,68.7,67.3,64.2,95,75,63,30.06,30.01,0,0,0,0.00
2013-8-6,80.3,73.1,67.6,71.5,68.9,66.1,98,87,72,30.07,30.04,0,0,0,0.11
2013-8-7,84.8,78.3,70.6,73.0,70.9,68.5,93,79,67,30.09,30.03,0,0,0,0.00
2013-8-8,89.4,80.7,72.1,75.6,73.6,70.3,95,80,60,30.08,30.00,0,0,0,0.00
2013-8-9,90.9,85.7,74.6,78.4,76.3,72.7,94,74,65,30.04,29.99,0,0,0,0.00
2013-8-10,93.7,85.1,75.7,79.2,76.8,72.3,94,77,62,30.09,30.00,0,0,0,0.00
2013-8-11,93.1,86.5,74.0,78.5,76.3,72.5,95,73,60,30.12,30.01,0,0,0,0.00
2013-8-12,90.6,81.8,74.7,75.4,74.4,73.2,95,79,57,30.02,29.94,0,0,0,0.00
2013-8-13,86.6,76.7,71.2,78.7,74.1,70.1,98,92,75,29.91,29.78,0,0,0,0.01
2013-8-14,66.7,65.9,65.0,62.4,61.8,61.0,87,87,86,30.09,30.08,0,0,0,0.00
2013-8-15,77.0,68.3,59.9,61.2,59.4,57.3,93,74,56,30.18,30.09,0,0,0,0.00
2013-8-16,70.3,66.7,59.7,62.8,60.9,58.3,95,82,73,30.17,30.13,0,0,0,0.00
2013-8-17,71.2,68.2,64.2,70.6,67.2,61.6,98,97,92,30.19,30.12,0,0,0,0.00
2013-8-18,80.9,73.9,70.1,72.4,69.3,66.7,95,86,74,30.22,30.16,0,0,0,0.00
2013-8-19,72.5,71.0,67.3,71.6,70.0,66.2,97,97,96,30.19,30.11,0,0,0,0.00
2013-8-20,80.7,74.2,68.5,75.0,72.1,67.9,99,93,82,30.20,30.13,0,0,0,0.00
2013-8-21,76.3,74.5,72.4,72.2,71.3,70.0,97,90,83,30.18,30.11,0,0,0,0.00
2013-8-22,88.1,79.4,70.5,75.0,72.6,69.6,98,81,55,30.15,30.01,0,0,0,0.00
2013-8-23,83.4,77.0,71.3,74.1,71.1,69.0,95,83,73,30.05,29.97,0,0,0,0.00
2013-8-24,82.9,75.2,65.3,64.4,63.0,60.7,92,67,50,30.27,30.18,0,0,0,0.00
2013-8-25,78.5,72.4,64.5,64.6,60.6,58.5,81,67,52,30.41,30.30,0,0,0,0.00
2013-8-26,77.8,69.8,56.2,61.8,60.0,54.3,94,72,58,30.29,30.13,0,0,0,0.00
2013-8-27,88.3,75.6,62.3,73.1,68.1,59.0,90,79,57,30.08,29.97,0,0,0,0.00
2013-8-28,78.7,76.0,73.5,75.1,72.7,70.7,92,90,88,30.00,29.90,0,0,0,0.00
2013-8-29,87.1,81.0,75.9,75.0,73.4,71.0,90,78,66,30.01,29.86,0,0,0,0.00
2013-8-30,88.8,77.8,67.5,69.2,68.0,65.7,94,73,51,30.07,29.95,0,0,0,0.00
2013-8-31,86.2,74.5,68.9,72.8,69.7,67.7,96,87,64,29.98,29.88,0,0,0,0.00